createdAt,value
2019-02-17T00:02:12.317Z,22.53
2019-02-17T00:04:45.327Z,21.57
2019-02-17T00:07:15.788Z,21.40
2019-02-17T00:09:46.521Z,21.63
2019-02-17T00:12:17.120Z,21.37
2019-02-17T00:14:47.892Z,22.80
2019-02-17T00:17:18.442Z,21.73
2019-02-17T00:19:48.892Z,21.90
2019-02-17T00:22:19.814Z,24.43
2019-02-17T00:24:50.662Z,25.73
2019-02-17T00:27:21.155Z,26.00
2019-02-17T00:29:51.718Z,28.80
2019-02-17T00:32:22.406Z,28.87
2019-02-17T00:34:52.982Z,31.50
2019-02-17T00:37:23.731Z,32.40
2019-02-17T00:39:54.192Z,33.27
2019-02-17T00:42:25.006Z,31.47
2019-02-17T00:44:55.490Z,32.47
2019-02-17T00:47:26.014Z,33.13
2019-02-17T00:49:56.794Z,32.37
2019-02-17T00:52:27.262Z,31.90
2019-02-17T00:54:57.788Z,31.07
2019-02-17T00:57:28.263Z,31.27
2019-02-17T00:59:58.725Z,29.53
2019-02-17T01:02:29.569Z,30.67
2019-02-17T01:05:00.019Z,28.77
2019-02-17T01:07:30.627Z,28.50
2019-02-17T01:10:01.217Z,27.63
2019-02-17T01:12:32.778Z,26.27
2019-02-17T01:15:03.584Z,27.10
2019-02-17T01:17:34.273Z,25.37
2019-02-17T01:20:05.691Z,26.47
2019-02-17T01:22:37.211Z,28.67
2019-02-17T01:25:08.322Z,28.50
2019-02-17T01:27:39.523Z,30.13
2019-02-17T01:30:13.801Z,32.37
2019-02-17T01:32:44.478Z,30.90
2019-02-17T01:35:15.149Z,33.93
2019-02-17T01:37:46.037Z,30.70
2019-02-17T01:40:16.689Z,28.70
2019-02-17T01:42:47.470Z,29.30
2019-02-17T01:45:17.881Z,30.37
2019-02-17T01:47:48.568Z,29.30
2019-02-17T01:50:20.070Z,30.63
2019-02-17T01:52:50.956Z,29.53
2019-02-17T01:55:21.762Z,29.70
2019-02-17T01:57:52.934Z,29.70
2019-02-17T02:00:23.568Z,28.60
2019-02-17T02:02:54.107Z,28.20
2019-02-17T02:05:24.566Z,27.97
2019-02-17T02:07:55.431Z,29.03
2019-02-17T02:10:25.855Z,27.80
2019-02-17T02:12:56.503Z,28.50
2019-02-17T02:15:27.047Z,29.40
2019-02-17T02:17:57.656Z,30.50
2019-02-17T02:20:29.752Z,29.13
2019-02-17T02:23:00.260Z,28.07
2019-02-17T02:25:30.906Z,27.83
2019-02-17T02:28:01.842Z,27.27
2019-02-17T02:30:32.343Z,27.77
2019-02-17T02:33:02.933Z,27.70
2019-02-17T02:35:33.443Z,29.10
2019-02-17T02:38:04.078Z,30.27
2019-02-17T02:40:34.489Z,31.87
2019-02-17T02:43:04.983Z,33.87
2019-02-17T02:45:35.983Z,34.87
2019-02-17T02:48:06.484Z,36.03
2019-02-17T02:50:37.378Z,36.17
2019-02-17T02:53:07.874Z,37.87
2019-02-17T02:55:38.750Z,36.47
2019-02-17T02:58:10.240Z,31.77
2019-02-17T03:00:40.930Z,31.57
2019-02-17T03:03:11.573Z,29.17
2019-02-17T03:05:51.646Z,28.13
2019-02-17T03:08:22.304Z,27.13
2019-02-17T03:10:52.811Z,24.83
2019-02-17T03:13:23.813Z,26.07
2019-02-17T03:15:54.285Z,26.17
2019-02-17T03:18:25.142Z,26.53
2019-02-17T03:20:55.811Z,26.93
2019-02-17T03:23:26.533Z,26.50
2019-02-17T03:25:57.107Z,26.13
2019-02-17T03:28:28.193Z,26.30
2019-02-17T03:30:58.684Z,25.60
2019-02-17T03:33:29.234Z,25.27
2019-02-17T03:35:59.810Z,26.67
2019-02-17T03:38:30.572Z,24.80
2019-02-17T03:41:01.139Z,25.27
2019-02-17T03:43:32.026Z,24.43
2019-02-17T03:46:02.481Z,24.40
2019-02-17T03:48:33.420Z,24.70
2019-02-17T03:51:03.888Z,24.37
2019-02-17T03:53:34.657Z,26.87
2019-02-17T03:56:06.071Z,27.23
2019-02-17T03:58:36.636Z,28.83
2019-02-17T04:01:07.162Z,30.23
2019-02-17T04:03:39.196Z,30.10
2019-02-17T04:06:09.656Z,29.33
2019-02-17T04:08:40.136Z,27.53
2019-02-17T04:11:10.911Z,28.13
2019-02-17T04:13:41.336Z,27.40
2019-02-17T04:16:11.905Z,27.33
2019-02-17T04:18:42.564Z,26.27
2019-02-17T04:21:12.985Z,27.03
2019-02-17T04:23:43.766Z,27.67
2019-02-17T04:26:14.214Z,29.33
2019-02-17T04:28:44.696Z,29.73
2019-02-17T04:31:15.353Z,29.77
2019-02-17T04:33:46.929Z,31.63
2019-02-17T04:36:17.421Z,32.23
2019-02-17T04:38:48.122Z,33.67
2019-02-17T04:41:18.849Z,31.50
2019-02-17T04:43:49.422Z,31.07
2019-02-17T04:46:19.887Z,29.40
2019-02-17T04:48:50.493Z,29.17
2019-02-17T04:51:22.168Z,28.60
2019-02-17T04:53:52.704Z,28.50
2019-02-17T04:56:23.196Z,29.63
2019-02-17T04:58:53.740Z,28.07
2019-02-17T05:01:24.296Z,29.30
2019-02-17T05:03:54.761Z,27.70
2019-02-17T05:06:25.196Z,28.63
2019-02-17T05:08:55.659Z,30.40
2019-02-17T05:11:26.143Z,29.80
2019-02-17T05:13:56.722Z,32.37
2019-02-17T05:16:27.163Z,31.87
2019-02-17T05:18:57.829Z,31.20
2019-02-17T05:21:28.550Z,31.60
2019-02-17T05:23:59.255Z,29.93
2019-02-17T05:26:29.794Z,28.37
2019-02-17T05:29:00.575Z,29.00
2019-02-17T05:31:31.274Z,29.77
2019-02-17T05:34:01.894Z,26.87
2019-02-17T05:36:32.335Z,26.73
2019-02-17T05:39:03.122Z,27.60
2019-02-17T05:41:35.558Z,26.10
2019-02-17T05:44:06.019Z,26.93
2019-02-17T05:46:36.463Z,27.30
2019-02-17T05:49:06.972Z,27.73
2019-02-17T05:51:37.419Z,28.33
2019-02-17T05:54:08.054Z,28.30
2019-02-17T05:56:38.546Z,27.37
2019-02-17T05:59:09.212Z,26.90
2019-02-17T06:01:39.796Z,26.97
2019-02-17T06:04:10.325Z,26.40
2019-02-17T06:06:41.034Z,26.03
2019-02-17T06:09:11.536Z,25.60
2019-02-17T06:11:42.114Z,25.53
2019-02-17T06:14:12.783Z,26.87
2019-02-17T06:16:43.272Z,26.83
2019-02-17T06:19:13.739Z,26.80
2019-02-17T06:21:44.338Z,30.37
2019-02-17T06:24:14.745Z,30.10
2019-02-17T06:26:45.498Z,30.13
2019-02-17T06:32:42.886Z,31.63
2019-02-17T06:35:13.675Z,29.80
2019-02-17T06:37:44.123Z,31.70
2019-02-17T06:40:14.697Z,30.27
2019-02-17T06:42:45.216Z,29.40
2019-02-17T06:45:15.774Z,30.00
2019-02-17T06:47:46.451Z,30.63
2019-02-17T06:50:16.988Z,30.03
2019-02-17T06:52:47.433Z,29.00
2019-02-17T06:55:31.308Z,29.13
2019-02-17T06:58:01.898Z,28.90
2019-02-17T07:00:42.043Z,28.67
2019-02-17T07:03:14.355Z,28.80
2019-02-17T07:06:06.317Z,28.53
2019-02-17T07:08:37.461Z,29.40
2019-02-17T07:11:08.392Z,29.40
2019-02-17T07:13:39.177Z,29.30
2019-02-17T07:16:09.748Z,27.90
2019-02-17T07:18:40.497Z,28.03
2019-02-17T07:21:11.185Z,29.80
2019-02-17T07:23:41.687Z,28.13
2019-02-17T07:26:12.318Z,26.50
2019-02-17T07:28:42.774Z,26.87
2019-02-17T07:31:13.355Z,26.83
2019-02-17T07:33:44.011Z,26.43
2019-02-17T07:36:14.562Z,27.00
2019-02-17T07:38:45.757Z,26.43
2019-02-17T07:41:17.251Z,27.17
2019-02-17T07:43:57.695Z,26.37
2019-02-17T07:46:28.323Z,26.50
2019-02-17T07:48:58.893Z,26.40
2019-02-17T07:51:29.471Z,26.40
2019-02-17T07:54:00.196Z,27.40
2019-02-17T07:56:30.787Z,26.50
2019-02-17T07:59:01.479Z,27.80
2019-02-17T08:01:32.007Z,26.33
2019-02-17T08:04:02.881Z,26.57
2019-02-17T08:06:34.085Z,27.07
2019-02-17T08:09:06.007Z,27.63
2019-02-17T08:11:37.649Z,26.50
2019-02-17T08:14:08.670Z,27.10
2019-02-17T08:16:39.370Z,27.20
2019-02-17T08:19:10.269Z,28.07
2019-02-17T08:21:40.874Z,26.73
2019-02-17T08:24:11.698Z,25.97
2019-02-17T08:26:42.662Z,27.83
2019-02-17T08:29:13.704Z,27.90
2019-02-17T08:31:44.274Z,27.83
2019-02-17T08:34:14.944Z,27.97
2019-02-17T08:36:45.688Z,27.20
2019-02-17T08:39:16.614Z,28.57
2019-02-17T08:41:47.246Z,29.00
2019-02-17T08:44:17.926Z,27.57
2019-02-17T08:46:48.716Z,28.93
2019-02-17T08:49:19.561Z,26.33
2019-02-17T08:51:50.146Z,28.23
2019-02-17T08:54:20.616Z,25.33
2019-02-17T08:56:51.430Z,25.27
2019-02-17T08:59:22.102Z,24.70
2019-02-17T09:01:52.678Z,24.77
2019-02-17T09:04:23.460Z,23.60
2019-02-17T09:06:54.161Z,20.80
2019-02-17T09:09:24.687Z,21.80
2019-02-17T09:11:55.155Z,22.03
2019-02-17T09:14:25.755Z,20.23
2019-02-17T09:16:56.233Z,31.37
2019-02-17T09:19:26.672Z,26.33
2019-02-17T09:21:57.386Z,35.20
2019-02-17T09:24:27.847Z,22.13
2019-02-17T09:26:58.311Z,50.83
2019-02-17T09:29:28.956Z,127.03
2019-02-17T09:31:59.598Z,143.13
2019-02-17T09:34:30.163Z,109.83
2019-02-17T09:37:00.921Z,103.43
2019-02-17T09:39:31.532Z,51.43
2019-02-17T09:42:02.288Z,52.87
2019-02-17T09:44:33.147Z,32.37
2019-02-17T09:47:03.754Z,16.43
2019-02-17T09:49:34.300Z,14.40
2019-02-17T09:52:04.973Z,12.90
2019-02-17T09:54:35.790Z,13.10
2019-02-17T09:57:06.374Z,12.70
2019-02-17T09:59:37.062Z,12.50
2019-02-17T10:02:07.802Z,12.63
2019-02-17T10:04:38.340Z,12.53
2019-02-17T10:07:08.984Z,11.57
2019-02-17T10:09:39.898Z,12.63
2019-02-17T10:12:10.440Z,12.17
2019-02-17T10:14:41.222Z,11.63
2019-02-17T10:17:11.976Z,11.13
2019-02-17T10:19:42.704Z,13.17
2019-02-17T10:22:13.246Z,12.33
2019-02-17T10:24:44.348Z,12.50
2019-02-17T10:27:14.954Z,13.00
2019-02-17T10:29:45.720Z,12.40
2019-02-17T10:32:16.557Z,13.07
2019-02-17T10:34:47.639Z,13.97
2019-02-17T10:37:18.335Z,13.43
2019-02-17T10:39:49.104Z,13.67
2019-02-17T10:42:19.831Z,12.97
2019-02-17T10:44:50.412Z,13.27
2019-02-17T10:47:21.053Z,13.43
2019-02-17T10:49:52.015Z,13.70
2019-02-17T10:52:22.811Z,14.87
2019-02-17T10:54:53.475Z,14.57
2019-02-17T10:57:24.509Z,13.97
2019-02-17T10:59:55.991Z,13.80
2019-02-17T11:02:34.325Z,14.20
2019-02-17T11:05:05.314Z,13.70
2019-02-17T11:07:36.123Z,12.30
2019-02-17T11:10:07.299Z,12.87
2019-02-17T11:12:38.076Z,12.87
2019-02-17T11:15:10.904Z,12.70
2019-02-17T11:17:41.678Z,12.17
2019-02-17T11:20:12.686Z,12.90
2019-02-17T11:22:43.342Z,12.37
2019-02-17T11:25:14.050Z,12.67
2019-02-17T11:27:44.535Z,11.63
2019-02-17T11:30:16.000Z,12.73
2019-02-17T11:32:56.886Z,12.27
2019-02-17T11:35:18.938Z,11.83
2019-02-17T11:37:49.800Z,11.83
2019-02-17T11:40:20.306Z,11.40
2019-02-17T11:42:50.841Z,11.63
2019-02-17T11:45:21.468Z,12.30
2019-02-17T11:47:52.436Z,11.63
2019-02-17T11:50:22.910Z,11.17
2019-02-17T11:52:53.722Z,10.27
2019-02-17T11:55:24.378Z,11.03
2019-02-17T11:57:55.242Z,11.50
2019-02-17T12:00:25.799Z,11.80
2019-02-17T12:02:56.483Z,10.83
2019-02-17T12:05:27.015Z,11.77
2019-02-17T12:07:57.792Z,11.40
2019-02-17T12:10:28.459Z,11.43
2019-02-17T12:12:59.149Z,12.13
2019-02-17T12:15:30.121Z,13.30
2019-02-17T12:18:00.999Z,13.27
2019-02-17T12:20:51.630Z,14.20
2019-02-17T12:23:33.886Z,13.83
2019-02-17T12:26:08.515Z,14.63
2019-02-17T12:28:48.962Z,14.53
2019-02-17T12:31:24.420Z,14.90
2019-02-17T12:33:55.205Z,15.27
2019-02-17T12:36:26.203Z,14.80
2019-02-17T12:38:56.677Z,15.00
2019-02-17T12:41:27.458Z,14.73
2019-02-17T12:43:57.882Z,14.23
2019-02-17T12:46:28.952Z,14.23
2019-02-17T12:48:59.578Z,14.63
2019-02-17T12:51:30.157Z,14.70
2019-02-17T12:54:00.991Z,13.83
2019-02-17T12:56:31.653Z,14.37
2019-02-17T12:59:02.183Z,16.40
2019-02-17T13:01:34.375Z,14.63
2019-02-17T13:04:05.039Z,14.50
2019-02-17T13:06:35.753Z,12.77
2019-02-17T13:09:07.903Z,13.27
2019-02-17T13:11:39.402Z,13.80
2019-02-17T13:14:10.050Z,12.87
2019-02-17T13:16:41.126Z,12.57
2019-02-17T13:19:11.996Z,12.27
2019-02-17T13:21:42.746Z,11.83
2019-02-17T13:24:13.464Z,12.87
2019-02-17T13:26:44.195Z,13.17
2019-02-17T13:29:14.772Z,12.80
2019-02-17T13:31:45.469Z,12.77
2019-02-17T13:34:16.241Z,11.57
2019-02-17T13:36:47.895Z,12.53
2019-02-17T13:39:18.559Z,12.00
2019-02-17T13:41:49.115Z,11.00
2019-02-17T13:44:19.862Z,11.23
2019-02-17T13:46:50.804Z,10.63
2019-02-17T13:49:21.566Z,8.27
2019-02-17T13:51:52.131Z,9.57
2019-02-17T13:54:22.841Z,8.80
2019-02-17T13:56:53.655Z,6.60
2019-02-17T13:59:24.387Z,7.30
2019-02-17T14:01:55.191Z,6.40
2019-02-17T14:04:25.965Z,6.83
2019-02-17T14:06:56.603Z,6.93
2019-02-17T14:09:27.192Z,6.33
2019-02-17T14:11:57.983Z,6.53
2019-02-17T14:14:29.427Z,6.60
2019-02-17T14:17:00.419Z,7.30
2019-02-17T14:19:31.859Z,7.77
2019-02-17T14:22:02.554Z,7.43
2019-02-17T14:24:33.523Z,7.67
2019-02-17T14:27:04.001Z,7.40
2019-02-17T14:29:34.733Z,7.67
2019-02-17T14:32:05.385Z,8.33
2019-02-17T14:34:36.055Z,8.33
2019-02-17T14:37:06.662Z,8.87
2019-02-17T14:39:37.440Z,8.20
2019-02-17T14:42:08.165Z,8.33
2019-02-17T14:44:38.996Z,8.07
2019-02-17T14:47:09.521Z,7.93
2019-02-17T14:49:40.523Z,8.13
2019-02-17T14:52:11.355Z,8.47
2019-02-17T14:54:41.906Z,8.30
2019-02-17T14:57:13.086Z,7.80
2019-02-17T14:59:44.030Z,8.60
2019-02-17T15:02:14.703Z,8.47
2019-02-17T15:04:45.384Z,8.13
2019-02-17T15:07:16.088Z,8.43
2019-02-17T15:09:46.693Z,8.97
2019-02-17T15:12:17.300Z,8.53
2019-02-17T15:14:48.152Z,7.67
2019-02-17T15:17:18.803Z,7.40
2019-02-17T15:19:49.624Z,7.40
2019-02-17T15:22:20.384Z,7.50
2019-02-17T15:24:51.238Z,7.93
2019-02-17T15:27:21.970Z,7.67
2019-02-17T15:29:52.652Z,8.60
2019-02-17T15:32:23.260Z,8.33
2019-02-17T15:34:56.012Z,8.33
2019-02-17T15:37:26.649Z,8.63
2019-02-17T15:39:57.347Z,9.07
2019-02-17T15:42:28.343Z,8.47
2019-02-17T15:44:58.973Z,9.73
2019-02-17T15:47:29.757Z,10.20
2019-02-17T15:50:00.575Z,10.33
2019-02-17T15:52:31.293Z,9.43
2019-02-17T15:55:02.164Z,10.60
2019-02-17T15:57:33.223Z,10.13
2019-02-17T16:00:04.541Z,11.20
2019-02-17T16:02:35.411Z,11.07
2019-02-17T16:05:06.801Z,11.60
2019-02-17T16:07:37.394Z,12.17
2019-02-17T16:10:09.211Z,11.83
2019-02-17T16:12:41.047Z,12.00
2019-02-17T16:15:14.648Z,13.13
2019-02-17T16:17:45.465Z,13.43
2019-02-17T16:20:16.285Z,12.13
2019-02-17T16:22:47.148Z,12.87
2019-02-17T16:25:18.166Z,13.20
2019-02-17T16:27:49.135Z,13.13
2019-02-17T16:30:19.966Z,13.40
2019-02-17T16:32:50.903Z,13.30
2019-02-17T16:35:21.749Z,13.53
2019-02-17T16:37:53.013Z,13.67
2019-02-17T16:40:24.421Z,13.57
2019-02-17T16:42:55.014Z,13.73
2019-02-17T16:45:26.013Z,14.53
2019-02-17T16:47:56.960Z,14.97
2019-02-17T16:50:27.773Z,13.97
2019-02-17T16:52:58.500Z,15.07
2019-02-17T16:55:29.650Z,13.43
2019-02-17T16:58:00.590Z,14.83
2019-02-17T17:00:31.944Z,14.53
2019-02-17T17:03:02.924Z,14.30
2019-02-17T17:05:34.055Z,15.87
2019-02-17T17:08:05.130Z,15.03
2019-02-17T17:10:35.833Z,15.80
2019-02-17T17:13:06.515Z,16.73
2019-02-17T17:15:37.118Z,18.03
2019-02-17T17:18:07.996Z,17.13
2019-02-17T17:20:38.865Z,18.27
2019-02-17T17:23:09.418Z,18.07
2019-02-17T17:25:40.812Z,18.10
2019-02-17T17:28:11.441Z,18.70
2019-02-17T17:30:42.535Z,19.70
2019-02-17T17:33:13.851Z,18.37
2019-02-17T17:35:44.774Z,17.97
2019-02-17T17:38:16.660Z,18.57
2019-02-17T17:40:47.472Z,17.60
2019-02-17T17:43:18.143Z,18.17
2019-02-17T17:45:49.159Z,18.90
2019-02-17T17:48:20.033Z,19.00
2019-02-17T17:50:50.959Z,18.70
2019-02-17T17:53:21.466Z,18.70
2019-02-17T17:55:52.409Z,18.97
2019-02-17T17:58:23.532Z,18.23
2019-02-17T18:00:54.421Z,20.43
2019-02-17T18:03:25.429Z,19.40
2019-02-17T18:05:56.195Z,19.97
2019-02-17T18:08:26.832Z,19.57
2019-02-17T18:10:57.663Z,18.77
2019-02-17T18:13:34.895Z,19.07
2019-02-17T18:16:05.715Z,19.00
2019-02-17T18:18:36.689Z,18.03
2019-02-17T18:21:07.331Z,17.50
2019-02-17T18:23:38.254Z,18.07
2019-02-17T18:26:09.291Z,18.30
2019-02-17T18:28:39.844Z,18.23
2019-02-17T18:31:10.801Z,18.60
2019-02-17T18:33:41.367Z,19.43
2019-02-17T18:36:12.233Z,19.70
2019-02-17T18:38:42.931Z,18.43
2019-02-17T18:41:13.702Z,18.87
2019-02-17T18:43:44.530Z,19.97
2019-02-17T18:46:15.034Z,19.83
2019-02-17T18:48:46.215Z,21.20
2019-02-17T18:51:16.764Z,21.23
2019-02-17T18:53:47.840Z,21.07
2019-02-17T18:56:18.803Z,18.87
2019-02-17T18:58:49.893Z,18.40
2019-02-17T19:01:23.879Z,17.63
2019-02-17T19:03:54.349Z,17.80
2019-02-17T19:06:24.994Z,16.90
2019-02-17T19:08:55.563Z,16.80
2019-02-17T19:11:26.014Z,16.83
2019-02-17T19:13:56.567Z,16.70
2019-02-17T19:16:27.201Z,17.47
2019-02-17T19:18:57.833Z,16.47
2019-02-17T19:21:28.583Z,17.10
2019-02-17T19:23:59.111Z,15.90
2019-02-17T19:26:30.041Z,15.23
2019-02-17T19:29:00.493Z,14.17
2019-02-17T19:31:31.294Z,14.80
2019-02-17T19:34:02.495Z,15.10
2019-02-17T19:36:33.674Z,15.23
2019-02-17T19:39:05.980Z,15.70
2019-02-17T19:41:38.471Z,15.57
2019-02-17T19:44:09.582Z,16.57
2019-02-17T19:46:41.054Z,16.80
2019-02-17T19:49:12.279Z,15.20
2019-02-17T19:51:43.312Z,17.73
2019-02-17T19:54:14.106Z,17.17
2019-02-17T19:56:45.055Z,16.37
2019-02-17T19:59:16.063Z,16.87
2019-02-17T20:01:47.056Z,17.13
2019-02-17T20:04:24.008Z,18.13
2019-02-17T20:06:55.192Z,18.53
2019-02-17T20:09:25.900Z,17.63
2019-02-17T20:11:56.743Z,17.93
2019-02-17T20:14:27.617Z,18.00
2019-02-17T20:16:58.607Z,18.90
2019-02-17T20:19:29.439Z,19.00
2019-02-17T20:22:01.524Z,18.80
2019-02-17T20:24:32.717Z,19.67
2019-02-17T20:27:05.853Z,19.10
2019-02-17T20:29:37.682Z,20.27
2019-02-17T20:32:08.391Z,21.30
2019-02-17T20:34:39.277Z,22.10
2019-02-17T20:37:10.153Z,21.60
2019-02-17T20:39:41.396Z,20.53
2019-02-17T20:42:12.455Z,22.13
2019-02-17T20:44:43.213Z,20.53
2019-02-17T20:47:13.879Z,21.60
2019-02-17T20:49:44.550Z,21.63
2019-02-17T20:52:15.467Z,22.23
2019-02-17T20:54:46.573Z,22.13
2019-02-17T20:57:17.290Z,22.57
2019-02-17T20:59:48.237Z,23.33
2019-02-17T21:02:19.077Z,21.60
2019-02-17T21:04:50.178Z,21.43
2019-02-17T21:07:21.160Z,20.83
2019-02-17T21:09:52.355Z,20.97
2019-02-17T21:12:23.122Z,19.83
2019-02-17T21:14:54.105Z,20.53
2019-02-17T21:17:24.671Z,19.27
2019-02-17T21:19:55.640Z,20.17
2019-02-17T21:22:26.800Z,20.80
2019-02-17T21:24:57.567Z,20.10
2019-02-17T21:27:28.182Z,19.73
2019-02-17T21:29:58.829Z,20.30
2019-02-17T21:32:29.827Z,20.50
2019-02-17T21:35:00.462Z,19.00
2019-02-17T21:37:31.062Z,20.93
2019-02-17T21:40:01.910Z,20.47
2019-02-17T21:42:34.200Z,20.07
2019-02-17T21:45:05.405Z,19.57
2019-02-17T21:47:36.076Z,20.27
2019-02-17T21:50:07.452Z,19.37
2019-02-17T21:52:38.577Z,19.53
2019-02-17T21:55:09.568Z,20.03
2019-02-17T21:57:40.277Z,20.90
2019-02-17T22:00:14.614Z,19.30
2019-02-17T22:02:45.601Z,21.60
2019-02-17T22:05:16.668Z,19.50
2019-02-17T22:07:48.251Z,23.13
2019-02-17T22:10:18.912Z,21.90
2019-02-17T22:12:51.336Z,20.23
2019-02-17T22:15:22.283Z,20.33
2019-02-17T22:17:53.663Z,20.77
2019-02-17T22:20:24.525Z,20.80
2019-02-17T22:22:55.195Z,20.70
2019-02-17T22:25:26.095Z,18.60
2019-02-17T22:27:57.059Z,19.17
2019-02-17T22:30:28.026Z,18.53
2019-02-17T22:32:58.639Z,23.30
2019-02-17T22:35:29.846Z,20.07
2019-02-17T22:38:00.599Z,19.17
2019-02-17T22:40:32.791Z,18.47
2019-02-17T22:43:04.906Z,19.50
2019-02-17T22:45:35.672Z,19.77
2019-02-17T22:48:06.371Z,19.00
2019-02-17T22:50:37.226Z,18.40
2019-02-17T22:53:07.968Z,17.37
2019-02-17T22:55:38.625Z,18.10
2019-02-17T22:58:09.164Z,18.67
2019-02-17T23:00:59.635Z,19.10
2019-02-17T23:03:32.930Z,23.40
2019-02-17T23:06:03.932Z,19.77
2019-02-17T23:08:34.942Z,20.60
2019-02-17T23:11:05.572Z,24.27
2019-02-17T23:13:36.398Z,24.63
2019-02-17T23:16:07.112Z,25.63
2019-02-17T23:18:37.858Z,28.53
2019-02-17T23:21:08.368Z,28.97
2019-02-17T23:23:38.856Z,28.57
2019-02-17T23:26:09.594Z,25.10
2019-02-17T23:28:41.798Z,25.53
2019-02-17T23:31:13.817Z,32.70
2019-02-17T23:33:44.426Z,28.63
2019-02-17T23:36:15.321Z,27.20
2019-02-17T23:38:45.804Z,29.10
2019-02-17T23:41:16.462Z,32.23
2019-02-17T23:43:47.641Z,33.00
2019-02-17T23:46:18.588Z,33.90
2019-02-17T23:48:49.163Z,34.77
2019-02-17T23:51:20.242Z,36.97
2019-02-17T23:53:51.117Z,35.80
2019-02-17T23:56:21.613Z,35.83
2019-02-17T23:58:52.234Z,33.60
